SWA1776 EGLL-OTHH
Flight info
| Callsign | SWA1776 |
|---|---|
| Flight time | N/A |
| Altitude | 35000 |
| Route | DET L6 DVR UL9 KONAN UL607 KOK DCT MATUG DCT AMASI DCT BOMBI DCT TENLO DCT DEXIT DCT PESAT DCT TEGRI DCT ARTAT/N0453F370 UP975 EZS UL614 OTKEP UM688 SIDAD P975 LONOS L703 HAYYA |
| Aircraft | B38M/M-SDE1FGHILORVWXY/HB1 |
Departure
| Time | 2026-05-07 14:35 |
|---|---|
| Airport | London Heathrow Airport (EGLL) |
Arrival
| Time | N/A |
|---|---|
| Airport | Hamad International Airport (OTHH) |
| Time | Latitude | Longitude | Altitude | Speed | Heading |
|---|---|---|---|---|---|
| 2026-05-07 14:10 | 51.46925 | -0.48790 | 89 ft | 0 kts | 359° |
| 2026-05-07 14:25 | 51.46911 | -0.48789 | 91 ft | 4 kts | 358° |
| 2026-05-07 14:25 | 51.46886 | -0.48789 | 89 ft | 2 kts | 12° |
| 2026-05-07 14:25 | 51.46877 | -0.48799 | 89 ft | 2 kts | 75° |
| 2026-05-07 14:25 | 51.46875 | -0.48817 | 92 ft | 2 kts | 89° |
| 2026-05-07 14:26 | 51.46875 | -0.48822 | 91 ft | 0 kts | 89° |
| 2026-05-07 14:29 | 51.46875 | -0.48821 | 91 ft | 1 kts | 89° |
| 2026-05-07 14:29 | 51.46872 | -0.48791 | 89 ft | 5 kts | 112° |
| 2026-05-07 14:29 | 51.46830 | -0.48755 | 89 ft | 8 kts | 176° |
| 2026-05-07 14:29 | 51.46820 | -0.48754 | 89 ft | 0 kts | 176° |
| 2026-05-07 14:31 | 51.46811 | -0.48753 | 89 ft | 4 kts | 176° |
| 2026-05-07 14:31 | 51.46761 | -0.48751 | 90 ft | 10 kts | 180° |
| 2026-05-07 14:31 | 51.46703 | -0.48751 | 90 ft | 9 kts | 180° |
| 2026-05-07 14:32 | 51.46648 | -0.48751 | 89 ft | 8 kts | 181° |
| 2026-05-07 14:32 | 51.46602 | -0.48769 | 93 ft | 1 kts | 200° |
| 2026-05-07 14:32 | 51.46598 | -0.48771 | 92 ft | 0 kts | 200° |
| 2026-05-07 14:33 | 51.46583 | -0.48779 | 90 ft | 6 kts | 195° |
| 2026-05-07 14:33 | 51.46517 | -0.48787 | 89 ft | 10 kts | 161° |
| 2026-05-07 14:33 | 51.46478 | -0.48722 | 91 ft | 13 kts | 111° |
| 2026-05-07 14:34 | 51.46477 | -0.48633 | 90 ft | 0 kts | 88° |
| 2026-05-07 14:34 | 51.46477 | -0.48632 | 90 ft | 0 kts | 88° |
| 2026-05-07 14:34 | 51.46478 | -0.48499 | 91 ft | 45 kts | 90° |
| 2026-05-07 14:35 | 51.46481 | -0.47529 | 88 ft | 126 kts | 89° |
| 2026-05-07 14:35 | 51.46488 | -0.45812 | 245 ft | 175 kts | 89° |
| 2026-05-07 14:35 | 51.46516 | -0.43656 | 725 ft | 208 kts | 88° |
| 2026-05-07 14:35 | 51.46471 | -0.41314 | 1283 ft | 215 kts | 99° |
| 2026-05-07 14:36 | 51.46019 | -0.39014 | 1844 ft | 223 kts | 118° |
| 2026-05-07 14:36 | 51.45127 | -0.36896 | 2530 ft | 237 kts | 127° |
| 2026-05-07 14:36 | 51.44140 | -0.34696 | 3290 ft | 250 kts | 123° |
| 2026-05-07 14:36 | 51.43472 | -0.32082 | 3953 ft | 258 kts | 106° |
| 2026-05-07 14:37 | 51.42993 | -0.29290 | 4617 ft | 266 kts | 105° |
| 2026-05-07 14:37 | 51.42138 | -0.23454 | 5874 ft | 271 kts | 103° |
| 2026-05-07 14:37 | 51.41720 | -0.20493 | 6536 ft | 273 kts | 103° |
| 2026-05-07 14:38 | 51.41303 | -0.17520 | 7216 ft | 275 kts | 103° |
| 2026-05-07 14:38 | 51.40884 | -0.14508 | 7883 ft | 277 kts | 103° |
| 2026-05-07 14:38 | 51.40466 | -0.11475 | 8572 ft | 280 kts | 103° |
| 2026-05-07 14:38 | 51.40042 | -0.08413 | 9260 ft | 283 kts | 103° |
| 2026-05-07 14:39 | 51.39614 | -0.05322 | 9963 ft | 286 kts | 104° |
| 2026-05-07 14:39 | 51.39178 | -0.02182 | 10632 ft | 290 kts | 104° |
| 2026-05-07 14:39 | 51.38740 | 0.00975 | 11292 ft | 293 kts | 104° |
| 2026-05-07 14:39 | 51.38295 | 0.04171 | 11991 ft | 295 kts | 104° |
| 2026-05-07 14:40 | 51.37846 | 0.07388 | 12725 ft | 298 kts | 104° |
| 2026-05-07 14:40 | 51.37390 | 0.10646 | 13472 ft | 301 kts | 104° |
| 2026-05-07 14:40 | 51.36935 | 0.13887 | 14176 ft | 304 kts | 104° |
| 2026-05-07 14:40 | 51.36469 | 0.17204 | 14855 ft | 308 kts | 104° |
| 2026-05-07 14:41 | 51.35996 | 0.20558 | 15546 ft | 311 kts | 104° |
| 2026-05-07 14:41 | 51.35516 | 0.23955 | 16250 ft | 314 kts | 104° |
| 2026-05-07 14:41 | 51.35032 | 0.27382 | 16965 ft | 316 kts | 104° |
| 2026-05-07 14:41 | 51.34543 | 0.30826 | 17676 ft | 318 kts | 104° |
| 2026-05-07 14:42 | 51.34051 | 0.34286 | 18237 ft | 319 kts | 104° |
| 2026-05-07 14:42 | 51.33555 | 0.37766 | 18834 ft | 320 kts | 104° |
| 2026-05-07 14:42 | 51.33060 | 0.41236 | 19434 ft | 321 kts | 104° |
| 2026-05-07 14:42 | 51.32562 | 0.44716 | 20038 ft | 321 kts | 104° |
| 2026-05-07 14:43 | 51.32061 | 0.48203 | 20639 ft | 322 kts | 104° |
| 2026-05-07 14:43 | 51.31559 | 0.51696 | 21237 ft | 322 kts | 104° |
| 2026-05-07 14:43 | 51.31057 | 0.55185 | 21834 ft | 322 kts | 104° |
| 2026-05-07 14:43 | 51.30553 | 0.58668 | 22420 ft | 322 kts | 105° |
| 2026-05-07 14:44 | 51.29950 | 0.62062 | 22972 ft | 321 kts | 108° |
| 2026-05-07 14:44 | 51.29320 | 0.65486 | 23509 ft | 321 kts | 108° |
| 2026-05-07 14:44 | 51.28694 | 0.68903 | 23962 ft | 320 kts | 108° |
| 2026-05-07 14:44 | 51.28072 | 0.72309 | 24394 ft | 320 kts | 108° |
| 2026-05-07 14:45 | 51.27448 | 0.75723 | 24790 ft | 321 kts | 108° |
| 2026-05-07 14:45 | 51.26814 | 0.79185 | 24970 ft | 331 kts | 108° |
| 2026-05-07 14:45 | 51.26151 | 0.82797 | 24939 ft | 347 kts | 108° |
| 2026-05-07 14:45 | 51.25458 | 0.86575 | 24965 ft | 361 kts | 108° |
| 2026-05-07 14:46 | 51.24741 | 0.90465 | 25014 ft | 369 kts | 108° |
| 2026-05-07 14:46 | 51.24014 | 0.94411 | 25024 ft | 371 kts | 108° |
| 2026-05-07 14:46 | 51.23278 | 0.98387 | 25023 ft | 377 kts | 108° |
| 2026-05-07 14:46 | 51.22521 | 1.02476 | 25024 ft | 391 kts | 108° |
| 2026-05-07 14:47 | 51.21735 | 1.06709 | 25023 ft | 406 kts | 108° |
| 2026-05-07 14:47 | 51.20927 | 1.11050 | 25026 ft | 419 kts | 108° |
| 2026-05-07 14:47 | 51.20082 | 1.15581 | 25026 ft | 433 kts | 108° |
| 2026-05-07 14:47 | 51.19207 | 1.20255 | 25027 ft | 446 kts | 108° |
| 2026-05-07 14:48 | 51.18306 | 1.25064 | 25028 ft | 458 kts | 108° |
| 2026-05-07 14:48 | 51.17382 | 1.29982 | 25028 ft | 470 kts | 108° |
| 2026-05-07 14:48 | 51.16463 | 1.35035 | 25038 ft | 478 kts | 103° |
| 2026-05-07 14:48 | 51.16079 | 1.40310 | 25066 ft | 483 kts | 95° |
| 2026-05-07 14:49 | 51.15814 | 1.45667 | 25071 ft | 484 kts | 95° |
| 2026-05-07 14:49 | 51.15547 | 1.51014 | 25146 ft | 485 kts | 95° |
| 2026-05-07 14:49 | 51.15284 | 1.56376 | 25532 ft | 486 kts | 95° |
| 2026-05-07 14:49 | 51.15020 | 1.61759 | 25853 ft | 489 kts | 95° |